sensor_id;sensor_type;location;lat;lon;timestamp;temperature;humidity
24800;DHT22;12897;50.812;4.430;2022-09-21T00:01:28;10.20;99.90
24800;DHT22;12897;50.812;4.430;2022-09-21T00:03:59;10.10;99.90
24800;DHT22;12897;50.812;4.430;2022-09-21T00:06:30;10.00;99.90
24800;DHT22;12897;50.812;4.430;2022-09-21T00:08:59;10.10;99.90
24800;DHT22;12897;50.812;4.430;2022-09-21T00:11:30;10.10;99.90
24800;DHT22;12897;50.812;4.430;2022-09-21T00:14:01;10.00;99.90
24800;DHT22;12897;50.812;4.430;2022-09-21T00:16:31;10.00;99.90
24800;DHT22;12897;50.812;4.430;2022-09-21T00:18:59;9.90;99.90
24800;DHT22;12897;50.812;4.430;2022-09-21T00:21:27;9.80;99.90
24800;DHT22;12897;50.812;4.430;2022-09-21T00:23:55;9.80;99.90
24800;DHT22;12897;50.812;4.430;2022-09-21T00:26:24;9.90;99.90
24800;DHT22;12897;50.812;4.430;2022-09-21T00:28:54;9.80;99.90
24800;DHT22;12897;50.812;4.430;2022-09-21T00:31:22;9.90;99.90
24800;DHT22;12897;50.812;4.430;2022-09-21T00:33:52;9.90;99.90
24800;DHT22;12897;50.812;4.430;2022-09-21T00:36:22;9.80;99.90
24800;DHT22;12897;50.812;4.430;2022-09-21T00:38:55;9.80;99.90
24800;DHT22;12897;50.812;4.430;2022-09-21T00:41:24;9.70;99.90
24800;DHT22;12897;50.812;4.430;2022-09-21T00:44:27;9.60;99.90
24800;DHT22;12897;50.812;4.430;2022-09-21T00:47:04;9.50;99.90
24800;DHT22;12897;50.812;4.430;2022-09-21T00:49:32;9.60;99.90
24800;DHT22;12897;50.812;4.430;2022-09-21T00:52:10;9.60;99.90
24800;DHT22;12897;50.812;4.430;2022-09-21T00:54:47;9.70;99.90
24800;DHT22;12897;50.812;4.430;2022-09-21T00:57:11;9.60;99.90
24800;DHT22;12897;50.812;4.430;2022-09-21T00:59:41;9.70;99.90
24800;DHT22;12897;50.812;4.430;2022-09-21T01:02:10;9.60;99.90
24800;DHT22;12897;50.812;4.430;2022-09-21T01:04:38;9.60;99.90
24800;DHT22;12897;50.812;4.430;2022-09-21T01:07:08;9.60;99.90
24800;DHT22;12897;50.812;4.430;2022-09-21T01:09:39;9.50;99.90
24800;DHT22;12897;50.812;4.430;2022-09-21T01:12:23;9.50;99.90
24800;DHT22;12897;50.812;4.430;2022-09-21T01:23:41;9.50;99.90
24800;DHT22;12897;50.812;4.430;2022-09-21T01:32:19;9.30;99.90
24800;DHT22;12897;50.812;4.430;2022-09-21T01:34:56;9.30;99.90
24800;DHT22;12897;50.812;4.430;2022-09-21T01:37:23;9.30;99.90
24800;DHT22;12897;50.812;4.430;2022-09-21T01:39:53;9.30;99.90
24800;DHT22;12897;50.812;4.430;2022-09-21T01:42:22;9.40;99.90
24800;DHT22;12897;50.812;4.430;2022-09-21T01:44:53;9.40;99.90
24800;DHT22;12897;50.812;4.430;2022-09-21T01:47:34;9.40;99.90
24800;DHT22;12897;50.812;4.430;2022-09-21T01:50:02;9.40;99.90
24800;DHT22;12897;50.812;4.430;2022-09-21T01:52:39;9.50;99.90
24800;DHT22;12897;50.812;4.430;2022-09-21T01:55:19;9.40;99.90
24800;DHT22;12897;50.812;4.430;2022-09-21T02:00:23;9.20;99.90
24800;DHT22;12897;50.812;4.430;2022-09-21T02:02:54;9.10;99.90
24800;DHT22;12897;50.812;4.430;2022-09-21T02:05:25;9.10;99.90
24800;DHT22;12897;50.812;4.430;2022-09-21T02:07:53;9.20;99.90
24800;DHT22;12897;50.812;4.430;2022-09-21T02:10:30;9.30;99.90
24800;DHT22;12897;50.812;4.430;2022-09-21T02:12:56;9.30;99.90
24800;DHT22;12897;50.812;4.430;2022-09-21T02:15:36;9.20;99.90
24800;DHT22;12897;50.812;4.430;2022-09-21T02:18:08;9.20;99.90
24800;DHT22;12897;50.812;4.430;2022-09-21T02:20:43;9.20;99.90
24800;DHT22;12897;50.812;4.430;2022-09-21T02:23:13;9.30;99.90
24800;DHT22;12897;50.812;4.430;2022-09-21T02:25:56;9.30;99.90
24800;DHT22;12897;50.812;4.430;2022-09-21T02:28:54;9.20;99.90
24800;DHT22;12897;50.812;4.430;2022-09-21T02:31:41;9.10;99.90
24800;DHT22;12897;50.812;4.430;2022-09-21T02:36:52;9.10;99.90
24800;DHT22;12897;50.812;4.430;2022-09-21T02:39:36;9.10;99.90
24800;DHT22;12897;50.812;4.430;2022-09-21T02:42:15;9.10;99.90
24800;DHT22;12897;50.812;4.430;2022-09-21T02:44:49;9.10;99.90
24800;DHT22;12897;50.812;4.430;2022-09-21T02:50:06;9.00;99.90
24800;DHT22;12897;50.812;4.430;2022-09-21T02:52:31;9.00;99.90
24800;DHT22;12897;50.812;4.430;2022-09-21T02:55:01;9.00;99.90
24800;DHT22;12897;50.812;4.430;2022-09-21T02:57:30;8.90;99.90
24800;DHT22;12897;50.812;4.430;2022-09-21T02:59:57;8.90;99.90
24800;DHT22;12897;50.812;4.430;2022-09-21T03:02:36;8.90;99.90
24800;DHT22;12897;50.812;4.430;2022-09-21T03:05:05;9.00;99.90
24800;DHT22;12897;50.812;4.430;2022-09-21T03:07:33;9.00;99.90
24800;DHT22;12897;50.812;4.430;2022-09-21T03:10:01;9.00;99.90
24800;DHT22;12897;50.812;4.430;2022-09-21T03:12:29;9.00;99.90
24800;DHT22;12897;50.812;4.430;2022-09-21T03:14:58;8.90;99.90
24800;DHT22;12897;50.812;4.430;2022-09-21T03:17:29;8.90;99.90
24800;DHT22;12897;50.812;4.430;2022-09-21T03:19:55;9.00;99.90
24800;DHT22;12897;50.812;4.430;2022-09-21T03:22:23;9.10;99.90
24800;DHT22;12897;50.812;4.430;2022-09-21T03:24:50;9.20;99.90
24800;DHT22;12897;50.812;4.430;2022-09-21T03:27:20;9.10;99.90
24800;DHT22;12897;50.812;4.430;2022-09-21T03:29:50;9.10;99.90
24800;DHT22;12897;50.812;4.430;2022-09-21T03:32:30;9.00;99.90
24800;DHT22;12897;50.812;4.430;2022-09-21T03:34:57;9.10;99.90
24800;DHT22;12897;50.812;4.430;2022-09-21T03:37:28;9.00;99.90
24800;DHT22;12897;50.812;4.430;2022-09-21T03:39:56;8.90;99.90
24800;DHT22;12897;50.812;4.430;2022-09-21T03:42:25;8.90;99.90
24800;DHT22;12897;50.812;4.430;2022-09-21T03:44:53;8.90;99.90
24800;DHT22;12897;50.812;4.430;2022-09-21T03:47:20;8.90;99.90
24800;DHT22;12897;50.812;4.430;2022-09-21T03:49:48;8.90;99.90
24800;DHT22;12897;50.812;4.430;2022-09-21T03:52:15;8.90;99.90
24800;DHT22;12897;50.812;4.430;2022-09-21T03:54:45;8.90;99.90
24800;DHT22;12897;50.812;4.430;2022-09-21T03:57:14;8.90;99.90
24800;DHT22;12897;50.812;4.430;2022-09-21T03:59:41;8.90;99.90
24800;DHT22;12897;50.812;4.430;2022-09-21T04:02:09;8.90;99.90
24800;DHT22;12897;50.812;4.430;2022-09-21T04:04:37;8.90;99.90
24800;DHT22;12897;50.812;4.430;2022-09-21T04:07:04;8.90;99.90
24800;DHT22;12897;50.812;4.430;2022-09-21T04:09:32;8.90;99.90
24800;DHT22;12897;50.812;4.430;2022-09-21T04:12:06;9.00;99.90
24800;DHT22;12897;50.812;4.430;2022-09-21T04:14:36;8.90;99.90
24800;DHT22;12897;50.812;4.430;2022-09-21T04:17:19;8.90;99.90
24800;DHT22;12897;50.812;4.430;2022-09-21T04:20:13;8.90;99.90
24800;DHT22;12897;50.812;4.430;2022-09-21T04:22:46;8.90;99.90
24800;DHT22;12897;50.812;4.430;2022-09-21T04:25:31;8.90;99.90
24800;DHT22;12897;50.812;4.430;2022-09-21T04:30:32;8.90;99.90
24800;DHT22;12897;50.812;4.430;2022-09-21T04:33:00;8.90;99.90
24800;DHT22;12897;50.812;4.430;2022-09-21T04:35:33;8.90;99.90
24800;DHT22;12897;50.812;4.430;2022-09-21T04:38:01;8.80;99.90
24800;DHT22;12897;50.812;4.430;2022-09-21T04:40:32;8.80;99.90
24800;DHT22;12897;50.812;4.430;2022-09-21T04:42:59;8.80;99.90
24800;DHT22;12897;50.812;4.430;2022-09-21T04:45:27;8.90;99.90
24800;DHT22;12897;50.812;4.430;2022-09-21T04:47:57;8.70;99.90
24800;DHT22;12897;50.812;4.430;2022-09-21T04:50:25;8.70;99.90
24800;DHT22;12897;50.812;4.430;2022-09-21T04:52:54;8.70;99.90
24800;DHT22;12897;50.812;4.430;2022-09-21T04:55:23;8.70;99.90
24800;DHT22;12897;50.812;4.430;2022-09-21T04:57:50;8.60;99.90
24800;DHT22;12897;50.812;4.430;2022-09-21T05:00:19;8.80;99.90
24800;DHT22;12897;50.812;4.430;2022-09-21T05:02:47;8.80;99.90
24800;DHT22;12897;50.812;4.430;2022-09-21T05:05:15;8.70;99.90
24800;DHT22;12897;50.812;4.430;2022-09-21T05:07:43;8.70;99.90
24800;DHT22;12897;50.812;4.430;2022-09-21T05:10:11;8.70;99.90
24800;DHT22;12897;50.812;4.430;2022-09-21T05:12:38;8.80;99.90
24800;DHT22;12897;50.812;4.430;2022-09-21T05:15:09;8.70;99.90
24800;DHT22;12897;50.812;4.430;2022-09-21T05:17:40;8.70;99.90
24800;DHT22;12897;50.812;4.430;2022-09-21T05:20:08;8.70;99.90
24800;DHT22;12897;50.812;4.430;2022-09-21T05:22:36;8.80;99.90
24800;DHT22;12897;50.812;4.430;2022-09-21T05:25:05;8.90;99.90
24800;DHT22;12897;50.812;4.430;2022-09-21T05:27:32;8.90;99.90
24800;DHT22;12897;50.812;4.430;2022-09-21T05:30:00;8.80;99.90
24800;DHT22;12897;50.812;4.430;2022-09-21T05:37:58;8.90;99.90
24800;DHT22;12897;50.812;4.430;2022-09-21T05:40:29;8.80;99.90
24800;DHT22;12897;50.812;4.430;2022-09-21T05:42:56;8.70;99.90
24800;DHT22;12897;50.812;4.430;2022-09-21T05:45:24;8.70;99.90
24800;DHT22;12897;50.812;4.430;2022-09-21T05:47:57;8.80;99.90
24800;DHT22;12897;50.812;4.430;2022-09-21T05:53:23;8.80;99.90
24800;DHT22;12897;50.812;4.430;2022-09-21T05:55:59;8.80;99.90
24800;DHT22;12897;50.812;4.430;2022-09-21T05:58:55;8.90;99.90
24800;DHT22;12897;50.812;4.430;2022-09-21T06:01:50;9.00;99.90
24800;DHT22;12897;50.812;4.430;2022-09-21T06:04:11;9.00;99.90
24800;DHT22;12897;50.812;4.430;2022-09-21T06:06:39;9.00;99.90
24800;DHT22;12897;50.812;4.430;2022-09-21T06:09:07;9.00;99.90
24800;DHT22;12897;50.812;4.430;2022-09-21T06:11:36;9.00;99.90
24800;DHT22;12897;50.812;4.430;2022-09-21T06:14:04;9.00;99.90
24800;DHT22;12897;50.812;4.430;2022-09-21T06:16:42;9.10;99.90
24800;DHT22;12897;50.812;4.430;2022-09-21T06:19:13;9.20;99.90
24800;DHT22;12897;50.812;4.430;2022-09-21T06:21:40;9.40;99.90
24800;DHT22;12897;50.812;4.430;2022-09-21T06:24:08;9.40;99.90
24800;DHT22;12897;50.812;4.430;2022-09-21T06:26:36;9.50;99.90
24800;DHT22;12897;50.812;4.430;2022-09-21T06:29:05;9.60;99.90
24800;DHT22;12897;50.812;4.430;2022-09-21T06:31:33;9.70;99.90
24800;DHT22;12897;50.812;4.430;2022-09-21T06:34:02;9.80;99.90
24800;DHT22;12897;50.812;4.430;2022-09-21T06:36:31;9.90;99.90
24800;DHT22;12897;50.812;4.430;2022-09-21T06:38:59;9.90;99.90
24800;DHT22;12897;50.812;4.430;2022-09-21T06:41:28;10.00;99.90
24800;DHT22;12897;50.812;4.430;2022-09-21T06:43:55;10.20;99.90
24800;DHT22;12897;50.812;4.430;2022-09-21T06:46:23;10.20;99.90
24800;DHT22;12897;50.812;4.430;2022-09-21T06:48:50;10.20;99.90
24800;DHT22;12897;50.812;4.430;2022-09-21T06:51:20;10.20;99.90
24800;DHT22;12897;50.812;4.430;2022-09-21T06:53:54;10.40;99.90
24800;DHT22;12897;50.812;4.430;2022-09-21T06:56:24;10.50;99.90
24800;DHT22;12897;50.812;4.430;2022-09-21T06:58:53;10.40;99.90
24800;DHT22;12897;50.812;4.430;2022-09-21T07:01:21;10.60;99.90
24800;DHT22;12897;50.812;4.430;2022-09-21T07:03:50;10.70;99.90
24800;DHT22;12897;50.812;4.430;2022-09-21T07:06:19;10.80;99.90
24800;DHT22;12897;50.812;4.430;2022-09-21T07:08:50;10.80;99.90
24800;DHT22;12897;50.812;4.430;2022-09-21T07:11:21;10.90;99.90
24800;DHT22;12897;50.812;4.430;2022-09-21T07:13:53;10.80;99.90
24800;DHT22;12897;50.812;4.430;2022-09-21T07:16:21;11.00;99.90
24800;DHT22;12897;50.812;4.430;2022-09-21T07:18:50;11.00;99.90
24800;DHT22;12897;50.812;4.430;2022-09-21T07:21:18;11.10;99.90
24800;DHT22;12897;50.812;4.430;2022-09-21T07:23:47;11.10;99.90
24800;DHT22;12897;50.812;4.430;2022-09-21T07:26:21;11.20;99.90
24800;DHT22;12897;50.812;4.430;2022-09-21T07:28:49;11.30;99.90
24800;DHT22;12897;50.812;4.430;2022-09-21T07:31:23;11.50;99.90
24800;DHT22;12897;50.812;4.430;2022-09-21T07:33:55;11.50;99.90
24800;DHT22;12897;50.812;4.430;2022-09-21T07:36:22;11.60;99.90
24800;DHT22;12897;50.812;4.430;2022-09-21T07:38:50;11.70;99.90
24800;DHT22;12897;50.812;4.430;2022-09-21T07:41:20;11.70;99.90
24800;DHT22;12897;50.812;4.430;2022-09-21T07:43:47;11.80;99.90
24800;DHT22;12897;50.812;4.430;2022-09-21T07:46:15;11.80;99.90
24800;DHT22;12897;50.812;4.430;2022-09-21T07:48:43;11.80;99.90
24800;DHT22;12897;50.812;4.430;2022-09-21T07:51:14;12.00;99.90
24800;DHT22;12897;50.812;4.430;2022-09-21T07:53:43;11.90;99.90
24800;DHT22;12897;50.812;4.430;2022-09-21T07:56:15;12.00;99.90
24800;DHT22;12897;50.812;4.430;2022-09-21T07:58:43;12.10;99.90
24800;DHT22;12897;50.812;4.430;2022-09-21T08:01:29;12.30;99.90
24800;DHT22;12897;50.812;4.430;2022-09-21T08:03:57;12.50;99.90
24800;DHT22;12897;50.812;4.430;2022-09-21T08:06:28;12.50;99.90
24800;DHT22;12897;50.812;4.430;2022-09-21T08:08:59;12.70;99.90
24800;DHT22;12897;50.812;4.430;2022-09-21T08:11:30;12.80;99.90
24800;DHT22;12897;50.812;4.430;2022-09-21T08:14:06;13.00;99.90
24800;DHT22;12897;50.812;4.430;2022-09-21T08:16:33;13.00;99.90
24800;DHT22;12897;50.812;4.430;2022-09-21T08:19:01;13.00;99.90
24800;DHT22;12897;50.812;4.430;2022-09-21T08:21:28;13.10;99.90
24800;DHT22;12897;50.812;4.430;2022-09-21T08:23:56;13.10;99.90
24800;DHT22;12897;50.812;4.430;2022-09-21T08:26:23;13.20;99.90
24800;DHT22;12897;50.812;4.430;2022-09-21T08:28:53;13.20;99.90
24800;DHT22;12897;50.812;4.430;2022-09-21T08:31:22;13.30;99.90
24800;DHT22;12897;50.812;4.430;2022-09-21T08:33:53;13.60;99.90
24800;DHT22;12897;50.812;4.430;2022-09-21T08:36:22;13.60;99.90
24800;DHT22;12897;50.812;4.430;2022-09-21T08:38:49;13.80;99.90
24800;DHT22;12897;50.812;4.430;2022-09-21T08:41:22;14.00;99.90
24800;DHT22;12897;50.812;4.430;2022-09-21T08:43:58;14.10;99.90
24800;DHT22;12897;50.812;4.430;2022-09-21T08:46:23;14.40;99.90
24800;DHT22;12897;50.812;4.430;2022-09-21T08:49:01;14.40;99.90
24800;DHT22;12897;50.812;4.430;2022-09-21T08:51:31;14.60;99.90
24800;DHT22;12897;50.812;4.430;2022-09-21T08:54:11;14.60;99.90
24800;DHT22;12897;50.812;4.430;2022-09-21T08:56:33;14.70;99.90
24800;DHT22;12897;50.812;4.430;2022-09-21T08:59:01;14.70;99.90
24800;DHT22;12897;50.812;4.430;2022-09-21T09:04:49;14.80;99.90
24800;DHT22;12897;50.812;4.430;2022-09-21T09:07:33;14.70;99.90
24800;DHT22;12897;50.812;4.430;2022-09-21T09:21:38;15.00;99.90
24800;DHT22;12897;50.812;4.430;2022-09-21T09:24:15;15.00;99.90
24800;DHT22;12897;50.812;4.430;2022-09-21T09:26:51;15.20;99.90
24800;DHT22;12897;50.812;4.430;2022-09-21T09:29:28;15.00;99.90
24800;DHT22;12897;50.812;4.430;2022-09-21T09:31:58;15.10;99.90
24800;DHT22;12897;50.812;4.430;2022-09-21T09:34:41;15.20;99.90
24800;DHT22;12897;50.812;4.430;2022-09-21T09:37:16;15.20;99.90
24800;DHT22;12897;50.812;4.430;2022-09-21T09:39:50;15.10;99.90
24800;DHT22;12897;50.812;4.430;2022-09-21T09:48:05;15.40;99.90
24800;DHT22;12897;50.812;4.430;2022-09-21T09:50:37;15.50;99.90
24800;DHT22;12897;50.812;4.430;2022-09-21T09:53:23;15.60;99.90
24800;DHT22;12897;50.812;4.430;2022-09-21T09:55:54;15.50;99.90
24800;DHT22;12897;50.812;4.430;2022-09-21T10:01:39;15.60;99.90
24800;DHT22;12897;50.812;4.430;2022-09-21T10:04:10;15.50;99.90
24800;DHT22;12897;50.812;4.430;2022-09-21T10:06:38;15.30;99.90
24800;DHT22;12897;50.812;4.430;2022-09-21T10:09:28;15.40;99.90
24800;DHT22;12897;50.812;4.430;2022-09-21T10:12:02;15.60;99.90
24800;DHT22;12897;50.812;4.430;2022-09-21T10:14:31;15.60;99.90
24800;DHT22;12897;50.812;4.430;2022-09-21T10:17:05;15.40;99.90
24800;DHT22;12897;50.812;4.430;2022-09-21T10:19:33;15.30;99.90
24800;DHT22;12897;50.812;4.430;2022-09-21T10:22:02;15.30;99.90
24800;DHT22;12897;50.812;4.430;2022-09-21T10:24:35;15.40;99.90
24800;DHT22;12897;50.812;4.430;2022-09-21T10:29:43;15.70;99.90
24800;DHT22;12897;50.812;4.430;2022-09-21T10:37:31;15.80;99.90
24800;DHT22;12897;50.812;4.430;2022-09-21T10:40:01;16.10;99.90
24800;DHT22;12897;50.812;4.430;2022-09-21T10:42:34;16.40;99.90
24800;DHT22;12897;50.812;4.430;2022-09-21T10:45:20;16.40;99.90
24800;DHT22;12897;50.812;4.430;2022-09-21T10:47:56;16.70;99.90
24800;DHT22;12897;50.812;4.430;2022-09-21T10:50:44;16.60;99.90
24800;DHT22;12897;50.812;4.430;2022-09-21T10:53:18;16.40;99.90
24800;DHT22;12897;50.812;4.430;2022-09-21T10:56:14;16.20;99.90
24800;DHT22;12897;50.812;4.430;2022-09-21T10:59:36;16.10;99.90
24800;DHT22;12897;50.812;4.430;2022-09-21T11:01:43;16.00;99.90
24800;DHT22;12897;50.812;4.430;2022-09-21T11:04:17;16.30;99.90
24800;DHT22;12897;50.812;4.430;2022-09-21T11:06:47;16.20;99.90
24800;DHT22;12897;50.812;4.430;2022-09-21T11:09:45;16.20;99.90
24800;DHT22;12897;50.812;4.430;2022-09-21T11:12:00;16.50;99.90
24800;DHT22;12897;50.812;4.430;2022-09-21T11:17:32;16.00;99.90
24800;DHT22;12897;50.812;4.430;2022-09-21T11:23:07;16.50;99.90
24800;DHT22;12897;50.812;4.430;2022-09-21T11:28:13;16.60;99.90
24800;DHT22;12897;50.812;4.430;2022-09-21T11:35:59;16.40;99.90
24800;DHT22;12897;50.812;4.430;2022-09-21T11:49:57;17.00;99.90
24800;DHT22;12897;50.812;4.430;2022-09-21T12:00:22;16.60;99.90
24800;DHT22;12897;50.812;4.430;2022-09-21T12:03:48;16.50;99.90
24800;DHT22;12897;50.812;4.430;2022-09-21T12:05:30;16.50;99.90
24800;DHT22;12897;50.812;4.430;2022-09-21T12:08:29;16.90;99.90
24800;DHT22;12897;50.812;4.430;2022-09-21T12:16:31;17.20;99.90
24800;DHT22;12897;50.812;4.430;2022-09-21T12:22:18;16.70;99.90
24800;DHT22;12897;50.812;4.430;2022-09-21T12:24:51;16.90;99.90
24800;DHT22;12897;50.812;4.430;2022-09-21T12:27:35;17.30;99.90
24800;DHT22;12897;50.812;4.430;2022-09-21T12:35:34;17.50;99.90
24800;DHT22;12897;50.812;4.430;2022-09-21T12:38:20;17.20;99.90
24800;DHT22;12897;50.812;4.430;2022-09-21T12:43:42;17.60;99.90
24800;DHT22;12897;50.812;4.430;2022-09-21T12:46:19;17.70;99.90
24800;DHT22;12897;50.812;4.430;2022-09-21T12:48:48;17.80;99.90
24800;DHT22;12897;50.812;4.430;2022-09-21T12:51:33;18.00;99.90
24800;DHT22;12897;50.812;4.430;2022-09-21T12:54:07;18.10;99.90
24800;DHT22;12897;50.812;4.430;2022-09-21T12:56:52;18.20;99.90
24800;DHT22;12897;50.812;4.430;2022-09-21T12:59:44;18.40;99.90
24800;DHT22;12897;50.812;4.430;2022-09-21T13:02:25;18.50;99.90
24800;DHT22;12897;50.812;4.430;2022-09-21T13:07:49;18.70;99.90
24800;DHT22;12897;50.812;4.430;2022-09-21T13:13:04;18.90;99.90
24800;DHT22;12897;50.812;4.430;2022-09-21T13:15:45;19.00;99.90
24800;DHT22;12897;50.812;4.430;2022-09-21T13:18:30;19.10;99.90
24800;DHT22;12897;50.812;4.430;2022-09-21T13:21:15;19.20;99.90
24800;DHT22;12897;50.812;4.430;2022-09-21T13:26:36;19.80;99.90
24800;DHT22;12897;50.812;4.430;2022-09-21T13:34:29;18.70;99.90
24800;DHT22;12897;50.812;4.430;2022-09-21T13:47:45;17.70;99.90
24800;DHT22;12897;50.812;4.430;2022-09-21T13:50:28;17.80;99.90
24800;DHT22;12897;50.812;4.430;2022-09-21T13:53:02;17.50;99.90
24800;DHT22;12897;50.812;4.430;2022-09-21T13:55:34;17.40;99.90
24800;DHT22;12897;50.812;4.430;2022-09-21T13:58:31;17.60;99.90
24800;DHT22;12897;50.812;4.430;2022-09-21T14:00:57;17.80;99.90
24800;DHT22;12897;50.812;4.430;2022-09-21T14:03:31;17.80;99.90
24800;DHT22;12897;50.812;4.430;2022-09-21T14:06:17;17.70;99.90
24800;DHT22;12897;50.812;4.430;2022-09-21T14:09:03;17.70;99.90
24800;DHT22;12897;50.812;4.430;2022-09-21T14:17:00;17.40;99.90
24800;DHT22;12897;50.812;4.430;2022-09-21T14:24:41;17.10;99.90
24800;DHT22;12897;50.812;4.430;2022-09-21T14:27:15;17.00;99.90
24800;DHT22;12897;50.812;4.430;2022-09-21T14:29:58;17.00;99.90
24800;DHT22;12897;50.812;4.430;2022-09-21T14:32:34;16.90;99.90
24800;DHT22;12897;50.812;4.430;2022-09-21T14:35:22;17.10;99.90
24800;DHT22;12897;50.812;4.430;2022-09-21T14:37:53;17.30;99.90
24800;DHT22;12897;50.812;4.430;2022-09-21T14:40:29;17.20;99.90
24800;DHT22;12897;50.812;4.430;2022-09-21T14:42:53;17.20;99.90
24800;DHT22;12897;50.812;4.430;2022-09-21T14:45:40;17.40;99.90
24800;DHT22;12897;50.812;4.430;2022-09-21T14:48:13;17.30;99.90
24800;DHT22;12897;50.812;4.430;2022-09-21T14:50:46;17.20;99.90
24800;DHT22;12897;50.812;4.430;2022-09-21T14:53:30;17.00;99.90
24800;DHT22;12897;50.812;4.430;2022-09-21T15:01:37;17.30;99.90
24800;DHT22;12897;50.812;4.430;2022-09-21T15:07:24;17.60;99.90
24800;DHT22;12897;50.812;4.430;2022-09-21T15:10:27;17.80;99.90
24800;DHT22;12897;50.812;4.430;2022-09-21T15:16:24;18.70;99.90
24800;DHT22;12897;50.812;4.430;2022-09-21T15:19:07;18.80;99.90
24800;DHT22;12897;50.812;4.430;2022-09-21T15:21:32;19.00;99.90
24800;DHT22;12897;50.812;4.430;2022-09-21T15:24:09;18.90;99.90
24800;DHT22;12897;50.812;4.430;2022-09-21T15:26:33;19.00;99.90
24800;DHT22;12897;50.812;4.430;2022-09-21T15:29:02;19.20;99.90
24800;DHT22;12897;50.812;4.430;2022-09-21T15:31:37;19.10;99.90
24800;DHT22;12897;50.812;4.430;2022-09-21T15:34:06;19.00;99.90
24800;DHT22;12897;50.812;4.430;2022-09-21T15:36:39;19.00;99.90
24800;DHT22;12897;50.812;4.430;2022-09-21T15:39:22;19.00;98.70
24800;DHT22;12897;50.812;4.430;2022-09-21T15:44:36;18.70;99.20
24800;DHT22;12897;50.812;4.430;2022-09-21T15:47:11;18.50;99.80
24800;DHT22;12897;50.812;4.430;2022-09-21T15:49:48;18.10;99.90
24800;DHT22;12897;50.812;4.430;2022-09-21T15:52:31;17.90;99.90
24800;DHT22;12897;50.812;4.430;2022-09-21T15:55:14;17.70;99.90
24800;DHT22;12897;50.812;4.430;2022-09-21T15:57:43;17.70;99.90
24800;DHT22;12897;50.812;4.430;2022-09-21T16:00:22;17.80;99.90
24800;DHT22;12897;50.812;4.430;2022-09-21T16:03:15;17.70;99.90
24800;DHT22;12897;50.812;4.430;2022-09-21T16:05:49;17.60;99.90
24800;DHT22;12897;50.812;4.430;2022-09-21T16:08:19;17.40;99.90
24800;DHT22;12897;50.812;4.430;2022-09-21T16:10:48;17.30;99.90
24800;DHT22;12897;50.812;4.430;2022-09-21T16:13:23;17.40;99.90
24800;DHT22;12897;50.812;4.430;2022-09-21T16:16:11;17.40;99.90
24800;DHT22;12897;50.812;4.430;2022-09-21T16:18:50;17.30;99.90
24800;DHT22;12897;50.812;4.430;2022-09-21T16:21:25;17.20;99.90
24800;DHT22;12897;50.812;4.430;2022-09-21T16:24:19;17.10;99.90
24800;DHT22;12897;50.812;4.430;2022-09-21T16:26:56;17.00;99.90
24800;DHT22;12897;50.812;4.430;2022-09-21T16:29:37;17.00;99.90
24800;DHT22;12897;50.812;4.430;2022-09-21T16:34:50;16.50;99.90
24800;DHT22;12897;50.812;4.430;2022-09-21T16:37:25;16.40;99.90
24800;DHT22;12897;50.812;4.430;2022-09-21T16:39:58;16.30;99.90
24800;DHT22;12897;50.812;4.430;2022-09-21T16:42:29;16.20;99.90
24800;DHT22;12897;50.812;4.430;2022-09-21T16:45:02;16.10;99.90
24800;DHT22;12897;50.812;4.430;2022-09-21T16:47:30;16.00;99.90
24800;DHT22;12897;50.812;4.430;2022-09-21T16:49:59;15.90;99.90
24800;DHT22;12897;50.812;4.430;2022-09-21T16:52:29;15.80;99.90
24800;DHT22;12897;50.812;4.430;2022-09-21T16:54:57;15.70;99.90
24800;DHT22;12897;50.812;4.430;2022-09-21T16:57:25;15.70;99.90
24800;DHT22;12897;50.812;4.430;2022-09-21T16:59:53;15.60;99.90
24800;DHT22;12897;50.812;4.430;2022-09-21T17:02:21;15.50;99.90
24800;DHT22;12897;50.812;4.430;2022-09-21T17:04:49;15.40;99.90
24800;DHT22;12897;50.812;4.430;2022-09-21T17:07:16;15.30;99.90
24800;DHT22;12897;50.812;4.430;2022-09-21T17:09:45;15.30;99.90
24800;DHT22;12897;50.812;4.430;2022-09-21T17:12:15;15.10;99.90
24800;DHT22;12897;50.812;4.430;2022-09-21T17:14:44;15.00;99.90
24800;DHT22;12897;50.812;4.430;2022-09-21T17:17:23;15.00;99.90
24800;DHT22;12897;50.812;4.430;2022-09-21T17:19:53;15.10;99.90
24800;DHT22;12897;50.812;4.430;2022-09-21T17:22:20;15.10;99.90
24800;DHT22;12897;50.812;4.430;2022-09-21T17:24:50;15.00;99.90
24800;DHT22;12897;50.812;4.430;2022-09-21T17:27:22;14.80;99.90
24800;DHT22;12897;50.812;4.430;2022-09-21T17:29:52;14.50;99.90
24800;DHT22;12897;50.812;4.430;2022-09-21T17:32:22;14.40;99.90
24800;DHT22;12897;50.812;4.430;2022-09-21T17:34:54;14.20;99.90
24800;DHT22;12897;50.812;4.430;2022-09-21T17:37:18;14.20;99.90
24800;DHT22;12897;50.812;4.430;2022-09-21T17:39:47;14.10;99.90
24800;DHT22;12897;50.812;4.430;2022-09-21T17:42:19;14.10;99.90
24800;DHT22;12897;50.812;4.430;2022-09-21T17:47:34;13.90;99.90
24800;DHT22;12897;50.812;4.430;2022-09-21T17:50:17;13.90;99.90
24800;DHT22;12897;50.812;4.430;2022-09-21T17:52:45;13.80;99.90
24800;DHT22;12897;50.812;4.430;2022-09-21T17:55:33;13.70;99.90
24800;DHT22;12897;50.812;4.430;2022-09-21T18:01:07;13.50;99.90
24800;DHT22;12897;50.812;4.430;2022-09-21T18:03:36;13.60;99.90
24800;DHT22;12897;50.812;4.430;2022-09-21T18:06:09;13.70;99.90
24800;DHT22;12897;50.812;4.430;2022-09-21T18:08:38;13.70;99.90
24800;DHT22;12897;50.812;4.430;2022-09-21T18:17:07;13.40;99.90
24800;DHT22;12897;50.812;4.430;2022-09-21T18:19:41;13.40;99.90
24800;DHT22;12897;50.812;4.430;2022-09-21T18:22:35;13.40;99.90
24800;DHT22;12897;50.812;4.430;2022-09-21T18:25:12;13.30;99.90
24800;DHT22;12897;50.812;4.430;2022-09-21T18:27:34;13.20;99.90
24800;DHT22;12897;50.812;4.430;2022-09-21T18:30:03;13.10;99.90
24800;DHT22;12897;50.812;4.430;2022-09-21T18:32:45;13.00;99.90
24800;DHT22;12897;50.812;4.430;2022-09-21T18:38:11;12.90;99.90
24800;DHT22;12897;50.812;4.430;2022-09-21T18:40:46;12.80;99.90
24800;DHT22;12897;50.812;4.430;2022-09-21T18:46:15;12.50;99.90
24800;DHT22;12897;50.812;4.430;2022-09-21T18:48:58;12.50;99.90
24800;DHT22;12897;50.812;4.430;2022-09-21T18:53:58;12.40;99.90
24800;DHT22;12897;50.812;4.430;2022-09-21T18:56:35;12.40;99.90
24800;DHT22;12897;50.812;4.430;2022-09-21T18:59:00;12.40;99.90
24800;DHT22;12897;50.812;4.430;2022-09-21T19:01:28;12.40;99.90
24800;DHT22;12897;50.812;4.430;2022-09-21T19:03:58;12.50;99.90
24800;DHT22;12897;50.812;4.430;2022-09-21T19:06:52;12.60;99.90
24800;DHT22;12897;50.812;4.430;2022-09-21T19:11:58;12.60;99.90
24800;DHT22;12897;50.812;4.430;2022-09-21T19:14:40;12.50;99.90
24800;DHT22;12897;50.812;4.430;2022-09-21T19:25:14;12.30;99.90
24800;DHT22;12897;50.812;4.430;2022-09-21T19:27:56;12.20;99.90
24800;DHT22;12897;50.812;4.430;2022-09-21T19:30:19;12.10;99.90
24800;DHT22;12897;50.812;4.430;2022-09-21T19:32:51;12.10;99.90